Monterey, VA

7:44 AM EDT on July 29, 2015 (GMT -0400)
KVAMONTE3 | | Change Station
CLOSE
Current Station
Personal Weather Station
Location: Monterey, VA
Elevation: 2924 ft
Nearby Weather Stations

Elev 2924 ft 38.41 °N, 79.58 °W | Updated 4 minutes ago

Partly Cloudy
Partly Cloudy
65.1 °F
Feels Like 65.1 °F
N
0.0
Wind Variable Wind from NNE
Gusts 0.0 mph

Today
High -- | Low -- °F
--% Chance of Precip.
Yesterday
High -- | Low -- °F
Precip. -- in
6:17 AM 8:31 PM
Waxing Gibbous, 95% visible
Pressure 30.15 in
Visibility 0.2 miles
Clouds Overcast 100 ft
Dew Point 62 °F
Humidity 90%
Rainfall 0.00 in
Snow Depth Not available.
UV 0 out of 12
Pollen 4.10 out of 12
Air Quality Not available.
Flu Activity Not available.
METAR KHSP 291130Z AUTO 25008KT M1/4SM FG OVC001 20/20 A3015 RMK AO2 T02000200

More Conditions Fewer Conditions

Pressure 30.15 in
Visibility 0.2 miles
Clouds Overcast 100 ft
Dew Point 62 °F
Humidity 90%
Rainfall 0.00 in
Snow Depth Not available.
UV 0 out of 12
Pollen 4.10 out of 12
Air Quality Not available.
Flu Activity Not available.
METAR KHSP 291130Z AUTO 25008KT M1/4SM FG OVC001 20/20 A3015 RMK AO2 T02000200

More Conditions Fewer Conditions

10-Day Weather Forecast

×

Almanac

Astronomy

Jul. 29, 2015 Rise Set
Actual Time
Civil Twilight
Nautical Twilight
Astronomical Twilight
Moon
Length of Visible Light
Length of Day
Tomorrow will be .
, % of the Moon is Illuminated

Today's Extremes

State Highs State Lows

Community

WunderPhotos

Upload Photos

1,842,075 photos uploaded!

WunderBlogs® & News

Nearby

Air Quality

  Air Quality AQ Index Pollutant
Not available.

Snow Depth

Station Depth Elevation

Earthquake Activity

City Distance Mag. Time & Date
Minimum magnitude displayed is 2.5.

Coastal Water Temperatures

Place Temperature

Stations

Nearby Weather Stations

Station Location Temp. Windchill Dew Point Humidity Wind Precip. Elev Updated Type